sensor_id;sensor_type;location;lat;lon;timestamp;P1;durP1;ratioP1;P2;durP2;ratioP2
65755;SDS011;69208;47.502;18.940;2023-11-21T00:00:20;6.50;;;3.05;;
65755;SDS011;69208;47.502;18.940;2023-11-21T00:01:23;6.07;;;3.05;;
65755;SDS011;69208;47.502;18.940;2023-11-21T00:02:26;7.45;;;3.08;;
65755;SDS011;69208;47.502;18.940;2023-11-21T00:03:32;6.55;;;3.10;;
65755;SDS011;69208;47.502;18.940;2023-11-21T00:04:36;6.68;;;2.85;;
65755;SDS011;69208;47.502;18.940;2023-11-21T00:05:40;9.35;;;3.08;;
65755;SDS011;69208;47.502;18.940;2023-11-21T00:06:44;6.05;;;3.15;;
65755;SDS011;69208;47.502;18.940;2023-11-21T00:07:49;6.50;;;2.90;;
65755;SDS011;69208;47.502;18.940;2023-11-21T00:08:54;6.20;;;3.05;;
65755;SDS011;69208;47.502;18.940;2023-11-21T00:09:56;7.25;;;3.22;;
65755;SDS011;69208;47.502;18.940;2023-11-21T00:11:00;8.88;;;3.05;;
65755;SDS011;69208;47.502;18.940;2023-11-21T00:12:04;6.82;;;2.80;;
65755;SDS011;69208;47.502;18.940;2023-11-21T00:13:07;4.90;;;2.87;;
65755;SDS011;69208;47.502;18.940;2023-11-21T00:14:10;6.40;;;2.80;;
65755;SDS011;69208;47.502;18.940;2023-11-21T00:15:14;6.00;;;3.12;;
65755;SDS011;69208;47.502;18.940;2023-11-21T00:16:17;9.57;;;3.25;;
65755;SDS011;69208;47.502;18.940;2023-11-21T00:17:21;6.85;;;2.97;;
65755;SDS011;69208;47.502;18.940;2023-11-21T00:18:24;5.12;;;2.90;;
65755;SDS011;69208;47.502;18.940;2023-11-21T00:19:27;8.73;;;2.87;;
65755;SDS011;69208;47.502;18.940;2023-11-21T00:20:31;7.80;;;2.70;;
65755;SDS011;69208;47.502;18.940;2023-11-21T00:21:34;6.18;;;2.70;;
65755;SDS011;69208;47.502;18.940;2023-11-21T00:22:37;4.30;;;2.67;;
65755;SDS011;69208;47.502;18.940;2023-11-21T00:23:40;7.32;;;3.40;;
65755;SDS011;69208;47.502;18.940;2023-11-21T00:24:43;5.80;;;3.00;;
65755;SDS011;69208;47.502;18.940;2023-11-21T00:25:46;10.68;;;3.20;;
65755;SDS011;69208;47.502;18.940;2023-11-21T00:26:50;7.57;;;2.97;;
65755;SDS011;69208;47.502;18.940;2023-11-21T00:27:53;6.15;;;2.90;;
65755;SDS011;69208;47.502;18.940;2023-11-21T00:28:56;8.60;;;3.20;;
65755;SDS011;69208;47.502;18.940;2023-11-21T00:29:59;6.53;;;2.95;;
65755;SDS011;69208;47.502;18.940;2023-11-21T00:31:02;6.80;;;3.30;;
65755;SDS011;69208;47.502;18.940;2023-11-21T00:32:07;5.57;;;2.70;;
65755;SDS011;69208;47.502;18.940;2023-11-21T00:33:10;5.12;;;2.83;;
65755;SDS011;69208;47.502;18.940;2023-11-21T00:34:13;5.93;;;2.78;;
65755;SDS011;69208;47.502;18.940;2023-11-21T00:35:16;5.75;;;2.80;;
65755;SDS011;69208;47.502;18.940;2023-11-21T00:36:19;5.15;;;3.00;;
65755;SDS011;69208;47.502;18.940;2023-11-21T00:37:22;5.22;;;2.80;;
65755;SDS011;69208;47.502;18.940;2023-11-21T00:38:26;6.25;;;2.95;;
65755;SDS011;69208;47.502;18.940;2023-11-21T00:39:29;5.40;;;2.75;;
65755;SDS011;69208;47.502;18.940;2023-11-21T00:40:33;20.73;;;3.42;;
65755;SDS011;69208;47.502;18.940;2023-11-21T00:41:36;6.57;;;2.92;;
65755;SDS011;69208;47.502;18.940;2023-11-21T00:42:39;9.00;;;3.28;;
65755;SDS011;69208;47.502;18.940;2023-11-21T00:43:43;5.87;;;2.80;;
65755;SDS011;69208;47.502;18.940;2023-11-21T00:44:47;5.60;;;3.08;;
65755;SDS011;69208;47.502;18.940;2023-11-21T00:45:50;7.47;;;3.60;;
65755;SDS011;69208;47.502;18.940;2023-11-21T00:46:53;8.75;;;3.42;;
65755;SDS011;69208;47.502;18.940;2023-11-21T00:47:57;4.80;;;2.75;;
65755;SDS011;69208;47.502;18.940;2023-11-21T00:49:00;6.80;;;2.90;;
65755;SDS011;69208;47.502;18.940;2023-11-21T00:50:04;6.87;;;3.03;;
65755;SDS011;69208;47.502;18.940;2023-11-21T00:51:09;7.72;;;2.95;;
65755;SDS011;69208;47.502;18.940;2023-11-21T00:52:13;7.07;;;3.72;;
65755;SDS011;69208;47.502;18.940;2023-11-21T00:53:15;8.35;;;3.60;;
65755;SDS011;69208;47.502;18.940;2023-11-21T00:54:19;6.65;;;3.50;;
65755;SDS011;69208;47.502;18.940;2023-11-21T00:55:22;6.95;;;3.37;;
65755;SDS011;69208;47.502;18.940;2023-11-21T00:56:26;8.23;;;4.10;;
65755;SDS011;69208;47.502;18.940;2023-11-21T00:57:29;6.87;;;3.42;;
65755;SDS011;69208;47.502;18.940;2023-11-21T00:58:32;8.85;;;4.00;;
65755;SDS011;69208;47.502;18.940;2023-11-21T00:59:35;7.43;;;3.90;;
65755;SDS011;69208;47.502;18.940;2023-11-21T01:00:38;7.57;;;4.15;;
65755;SDS011;69208;47.502;18.940;2023-11-21T01:01:44;10.43;;;4.45;;
65755;SDS011;69208;47.502;18.940;2023-11-21T01:02:47;9.57;;;4.37;;
65755;SDS011;69208;47.502;18.940;2023-11-21T01:03:51;9.00;;;3.92;;
65755;SDS011;69208;47.502;18.940;2023-11-21T01:04:55;8.63;;;4.05;;
65755;SDS011;69208;47.502;18.940;2023-11-21T01:05:58;8.60;;;3.50;;
65755;SDS011;69208;47.502;18.940;2023-11-21T01:07:01;7.37;;;3.47;;
65755;SDS011;69208;47.502;18.940;2023-11-21T01:08:04;5.28;;;3.03;;
65755;SDS011;69208;47.502;18.940;2023-11-21T01:09:07;7.95;;;3.28;;
65755;SDS011;69208;47.502;18.940;2023-11-21T01:10:11;5.50;;;3.03;;
65755;SDS011;69208;47.502;18.940;2023-11-21T01:11:14;6.62;;;3.08;;
65755;SDS011;69208;47.502;18.940;2023-11-21T01:12:17;9.07;;;3.50;;
65755;SDS011;69208;47.502;18.940;2023-11-21T01:13:21;6.10;;;3.40;;
65755;SDS011;69208;47.502;18.940;2023-11-21T01:14:24;5.35;;;2.95;;
65755;SDS011;69208;47.502;18.940;2023-11-21T01:15:29;6.30;;;3.22;;
65755;SDS011;69208;47.502;18.940;2023-11-21T01:16:32;6.65;;;2.90;;
65755;SDS011;69208;47.502;18.940;2023-11-21T01:17:36;6.30;;;2.95;;
65755;SDS011;69208;47.502;18.940;2023-11-21T01:18:42;7.70;;;3.12;;
65755;SDS011;69208;47.502;18.940;2023-11-21T01:19:46;8.20;;;3.40;;
65755;SDS011;69208;47.502;18.940;2023-11-21T01:20:49;7.68;;;3.22;;
65755;SDS011;69208;47.502;18.940;2023-11-21T01:21:52;7.82;;;3.20;;
65755;SDS011;69208;47.502;18.940;2023-11-21T01:22:55;8.70;;;3.20;;
65755;SDS011;69208;47.502;18.940;2023-11-21T01:23:58;7.28;;;3.30;;
65755;SDS011;69208;47.502;18.940;2023-11-21T01:25:01;7.68;;;3.28;;
65755;SDS011;69208;47.502;18.940;2023-11-21T01:26:07;7.28;;;3.47;;
65755;SDS011;69208;47.502;18.940;2023-11-21T01:27:12;5.75;;;3.37;;
65755;SDS011;69208;47.502;18.940;2023-11-21T01:28:15;5.85;;;3.17;;
65755;SDS011;69208;47.502;18.940;2023-11-21T01:29:18;7.07;;;3.30;;
65755;SDS011;69208;47.502;18.940;2023-11-21T01:30:22;5.35;;;2.87;;
65755;SDS011;69208;47.502;18.940;2023-11-21T01:31:25;4.93;;;3.08;;
65755;SDS011;69208;47.502;18.940;2023-11-21T01:32:31;8.07;;;2.92;;
65755;SDS011;69208;47.502;18.940;2023-11-21T01:33:35;4.53;;;2.70;;
65755;SDS011;69208;47.502;18.940;2023-11-21T01:34:38;12.10;;;3.45;;
65755;SDS011;69208;47.502;18.940;2023-11-21T01:35:41;6.80;;;3.03;;
65755;SDS011;69208;47.502;18.940;2023-11-21T01:36:46;6.43;;;3.12;;
65755;SDS011;69208;47.502;18.940;2023-11-21T01:37:49;5.82;;;3.22;;
65755;SDS011;69208;47.502;18.940;2023-11-21T01:38:52;8.50;;;3.22;;
65755;SDS011;69208;47.502;18.940;2023-11-21T01:39:58;7.25;;;2.95;;
65755;SDS011;69208;47.502;18.940;2023-11-21T01:41:01;6.35;;;3.15;;
65755;SDS011;69208;47.502;18.940;2023-11-21T01:42:05;5.30;;;2.95;;
65755;SDS011;69208;47.502;18.940;2023-11-21T01:43:08;6.12;;;3.20;;
65755;SDS011;69208;47.502;18.940;2023-11-21T01:44:11;6.70;;;3.50;;
65755;SDS011;69208;47.502;18.940;2023-11-21T01:45:15;5.90;;;2.90;;
65755;SDS011;69208;47.502;18.940;2023-11-21T01:46:22;6.35;;;3.15;;
65755;SDS011;69208;47.502;18.940;2023-11-21T01:47:26;7.62;;;3.20;;
65755;SDS011;69208;47.502;18.940;2023-11-21T01:48:30;8.10;;;3.62;;
65755;SDS011;69208;47.502;18.940;2023-11-21T01:49:33;13.62;;;3.30;;
65755;SDS011;69208;47.502;18.940;2023-11-21T01:50:36;5.82;;;2.92;;
65755;SDS011;69208;47.502;18.940;2023-11-21T01:51:41;6.10;;;3.35;;
65755;SDS011;69208;47.502;18.940;2023-11-21T01:52:46;5.00;;;2.97;;
65755;SDS011;69208;47.502;18.940;2023-11-21T01:53:50;6.03;;;2.95;;
65755;SDS011;69208;47.502;18.940;2023-11-21T01:54:54;7.30;;;3.12;;
65755;SDS011;69208;47.502;18.940;2023-11-21T01:55:57;7.82;;;3.15;;
65755;SDS011;69208;47.502;18.940;2023-11-21T01:57:00;7.80;;;3.28;;
65755;SDS011;69208;47.502;18.940;2023-11-21T01:58:05;6.30;;;3.00;;
65755;SDS011;69208;47.502;18.940;2023-11-21T01:59:10;7.72;;;2.85;;
65755;SDS011;69208;47.502;18.940;2023-11-21T02:00:14;7.07;;;3.50;;
65755;SDS011;69208;47.502;18.940;2023-11-21T02:01:18;5.82;;;2.97;;
65755;SDS011;69208;47.502;18.940;2023-11-21T02:02:22;5.10;;;2.87;;
65755;SDS011;69208;47.502;18.940;2023-11-21T02:03:25;10.50;;;3.35;;
65755;SDS011;69208;47.502;18.940;2023-11-21T02:04:28;10.38;;;3.80;;
65755;SDS011;69208;47.502;18.940;2023-11-21T02:05:32;7.87;;;3.50;;
65755;SDS011;69208;47.502;18.940;2023-11-21T02:06:35;8.60;;;3.30;;
65755;SDS011;69208;47.502;18.940;2023-11-21T02:07:39;6.20;;;3.30;;
65755;SDS011;69208;47.502;18.940;2023-11-21T02:08:42;8.38;;;3.20;;
65755;SDS011;69208;47.502;18.940;2023-11-21T02:09:46;6.28;;;3.37;;
65755;SDS011;69208;47.502;18.940;2023-11-21T02:10:51;7.22;;;3.17;;
65755;SDS011;69208;47.502;18.940;2023-11-21T02:11:54;7.57;;;3.25;;
65755;SDS011;69208;47.502;18.940;2023-11-21T02:13:00;18.45;;;3.50;;
65755;SDS011;69208;47.502;18.940;2023-11-21T02:14:05;6.75;;;3.30;;
65755;SDS011;69208;47.502;18.940;2023-11-21T02:15:12;6.70;;;3.10;;
65755;SDS011;69208;47.502;18.940;2023-11-21T02:16:29;6.20;;;3.10;;
65755;SDS011;69208;47.502;18.940;2023-11-21T02:17:34;7.95;;;3.22;;
65755;SDS011;69208;47.502;18.940;2023-11-21T02:18:37;7.60;;;2.97;;
65755;SDS011;69208;47.502;18.940;2023-11-21T02:19:41;9.40;;;3.50;;
65755;SDS011;69208;47.502;18.940;2023-11-21T02:20:44;6.07;;;2.70;;
65755;SDS011;69208;47.502;18.940;2023-11-21T02:21:52;16.65;;;3.20;;
65755;SDS011;69208;47.502;18.940;2023-11-21T02:22:56;5.30;;;2.67;;
65755;SDS011;69208;47.502;18.940;2023-11-21T02:24:03;5.75;;;2.95;;
65755;SDS011;69208;47.502;18.940;2023-11-21T02:25:08;8.07;;;2.87;;
65755;SDS011;69208;47.502;18.940;2023-11-21T02:26:12;7.03;;;2.80;;
65755;SDS011;69208;47.502;18.940;2023-11-21T02:27:16;7.45;;;2.92;;
65755;SDS011;69208;47.502;18.940;2023-11-21T02:28:24;5.20;;;2.70;;
65755;SDS011;69208;47.502;18.940;2023-11-21T02:29:29;6.25;;;2.70;;
65755;SDS011;69208;47.502;18.940;2023-11-21T02:30:32;7.43;;;2.97;;
65755;SDS011;69208;47.502;18.940;2023-11-21T02:31:35;6.40;;;2.87;;
65755;SDS011;69208;47.502;18.940;2023-11-21T02:32:38;5.28;;;2.60;;
65755;SDS011;69208;47.502;18.940;2023-11-21T02:33:51;3.90;;;2.33;;
65755;SDS011;69208;47.502;18.940;2023-11-21T02:34:55;5.97;;;2.67;;
65755;SDS011;69208;47.502;18.940;2023-11-21T02:35:58;6.95;;;2.55;;
65755;SDS011;69208;47.502;18.940;2023-11-21T02:37:01;4.97;;;2.70;;
65755;SDS011;69208;47.502;18.940;2023-11-21T02:38:05;6.65;;;2.78;;
65755;SDS011;69208;47.502;18.940;2023-11-21T02:39:09;6.05;;;2.83;;
65755;SDS011;69208;47.502;18.940;2023-11-21T02:40:13;5.62;;;2.90;;
65755;SDS011;69208;47.502;18.940;2023-11-21T02:41:20;5.78;;;2.97;;
65755;SDS011;69208;47.502;18.940;2023-11-21T02:42:23;6.72;;;2.72;;
65755;SDS011;69208;47.502;18.940;2023-11-21T02:43:27;6.22;;;2.72;;
65755;SDS011;69208;47.502;18.940;2023-11-21T02:44:30;6.28;;;2.70;;
65755;SDS011;69208;47.502;18.940;2023-11-21T02:45:33;7.35;;;2.67;;
65755;SDS011;69208;47.502;18.940;2023-11-21T02:46:37;7.28;;;2.37;;
65755;SDS011;69208;47.502;18.940;2023-11-21T02:47:42;5.15;;;2.37;;
65755;SDS011;69208;47.502;18.940;2023-11-21T02:48:46;8.95;;;2.90;;
65755;SDS011;69208;47.502;18.940;2023-11-21T02:49:50;8.52;;;2.53;;
65755;SDS011;69208;47.502;18.940;2023-11-21T02:50:55;5.07;;;2.37;;
65755;SDS011;69208;47.502;18.940;2023-11-21T02:51:58;5.57;;;2.67;;
65755;SDS011;69208;47.502;18.940;2023-11-21T02:53:01;6.25;;;2.40;;
65755;SDS011;69208;47.502;18.940;2023-11-21T02:54:05;6.32;;;2.83;;
65755;SDS011;69208;47.502;18.940;2023-11-21T02:55:11;4.97;;;2.47;;
65755;SDS011;69208;47.502;18.940;2023-11-21T02:56:14;4.75;;;2.50;;
65755;SDS011;69208;47.502;18.940;2023-11-21T02:57:17;4.00;;;2.40;;
65755;SDS011;69208;47.502;18.940;2023-11-21T02:58:21;4.30;;;2.37;;
65755;SDS011;69208;47.502;18.940;2023-11-21T02:59:24;8.93;;;2.40;;
65755;SDS011;69208;47.502;18.940;2023-11-21T03:00:28;5.28;;;2.25;;
65755;SDS011;69208;47.502;18.940;2023-11-21T03:01:31;5.50;;;2.20;;
65755;SDS011;69208;47.502;18.940;2023-11-21T03:02:34;7.97;;;2.50;;
65755;SDS011;69208;47.502;18.940;2023-11-21T03:03:43;3.97;;;2.03;;
65755;SDS011;69208;47.502;18.940;2023-11-21T03:04:46;5.65;;;2.60;;
65755;SDS011;69208;47.502;18.940;2023-11-21T03:05:51;5.45;;;2.20;;
65755;SDS011;69208;47.502;18.940;2023-11-21T03:06:55;4.40;;;2.28;;
65755;SDS011;69208;47.502;18.940;2023-11-21T03:07:57;4.60;;;2.22;;
65755;SDS011;69208;47.502;18.940;2023-11-21T03:09:00;4.32;;;2.22;;
65755;SDS011;69208;47.502;18.940;2023-11-21T03:10:04;4.22;;;2.22;;
65755;SDS011;69208;47.502;18.940;2023-11-21T03:11:07;7.07;;;2.58;;
65755;SDS011;69208;47.502;18.940;2023-11-21T03:12:10;6.82;;;2.10;;
65755;SDS011;69208;47.502;18.940;2023-11-21T03:13:17;4.75;;;2.10;;
65755;SDS011;69208;47.502;18.940;2023-11-21T03:14:20;3.83;;;1.92;;
65755;SDS011;69208;47.502;18.940;2023-11-21T03:15:23;5.65;;;2.37;;
65755;SDS011;69208;47.502;18.940;2023-11-21T03:16:26;5.85;;;2.42;;
65755;SDS011;69208;47.502;18.940;2023-11-21T03:17:29;3.65;;;2.05;;
65755;SDS011;69208;47.502;18.940;2023-11-21T03:18:32;5.05;;;2.05;;
65755;SDS011;69208;47.502;18.940;2023-11-21T03:19:35;4.55;;;2.10;;
65755;SDS011;69208;47.502;18.940;2023-11-21T03:20:38;6.28;;;2.30;;
65755;SDS011;69208;47.502;18.940;2023-11-21T03:21:41;4.28;;;2.12;;
65755;SDS011;69208;47.502;18.940;2023-11-21T03:22:44;5.10;;;2.20;;
65755;SDS011;69208;47.502;18.940;2023-11-21T03:23:47;4.40;;;2.03;;
65755;SDS011;69208;47.502;18.940;2023-11-21T03:24:51;5.22;;;2.12;;
65755;SDS011;69208;47.502;18.940;2023-11-21T03:25:54;8.20;;;2.10;;
65755;SDS011;69208;47.502;18.940;2023-11-21T03:26:57;3.28;;;2.08;;
65755;SDS011;69208;47.502;18.940;2023-11-21T03:28:00;7.93;;;2.17;;
65755;SDS011;69208;47.502;18.940;2023-11-21T03:29:04;5.32;;;2.20;;
65755;SDS011;69208;47.502;18.940;2023-11-21T03:30:08;6.25;;;2.33;;
65755;SDS011;69208;47.502;18.940;2023-11-21T03:31:13;4.03;;;1.92;;
65755;SDS011;69208;47.502;18.940;2023-11-21T03:32:16;5.80;;;2.45;;
65755;SDS011;69208;47.502;18.940;2023-11-21T03:33:19;2.55;;;1.80;;
65755;SDS011;69208;47.502;18.940;2023-11-21T03:34:24;5.32;;;2.17;;
65755;SDS011;69208;47.502;18.940;2023-11-21T03:35:31;5.65;;;2.22;;
65755;SDS011;69208;47.502;18.940;2023-11-21T03:36:35;3.80;;;1.87;;
65755;SDS011;69208;47.502;18.940;2023-11-21T03:37:39;4.82;;;2.35;;
65755;SDS011;69208;47.502;18.940;2023-11-21T03:38:44;15.65;;;2.35;;
65755;SDS011;69208;47.502;18.940;2023-11-21T03:39:47;4.70;;;1.95;;
65755;SDS011;69208;47.502;18.940;2023-11-21T03:40:51;6.82;;;2.00;;
65755;SDS011;69208;47.502;18.940;2023-11-21T03:41:54;5.40;;;2.17;;
65755;SDS011;69208;47.502;18.940;2023-11-21T03:42:58;7.55;;;2.53;;
65755;SDS011;69208;47.502;18.940;2023-11-21T03:44:01;3.08;;;2.03;;
65755;SDS011;69208;47.502;18.940;2023-11-21T03:45:05;4.53;;;2.00;;
65755;SDS011;69208;47.502;18.940;2023-11-21T03:46:09;3.90;;;1.90;;
65755;SDS011;69208;47.502;18.940;2023-11-21T03:47:12;3.60;;;2.00;;
65755;SDS011;69208;47.502;18.940;2023-11-21T03:48:16;4.80;;;2.30;;
65755;SDS011;69208;47.502;18.940;2023-11-21T03:49:19;6.65;;;2.35;;
65755;SDS011;69208;47.502;18.940;2023-11-21T03:50:22;6.25;;;2.78;;
65755;SDS011;69208;47.502;18.940;2023-11-21T03:51:25;14.77;;;3.10;;
65755;SDS011;69208;47.502;18.940;2023-11-21T03:52:28;5.22;;;2.62;;
65755;SDS011;69208;47.502;18.940;2023-11-21T03:53:31;8.00;;;2.60;;
65755;SDS011;69208;47.502;18.940;2023-11-21T03:54:34;5.15;;;2.60;;
65755;SDS011;69208;47.502;18.940;2023-11-21T03:55:38;5.32;;;2.28;;
65755;SDS011;69208;47.502;18.940;2023-11-21T03:56:41;6.05;;;2.33;;
65755;SDS011;69208;47.502;18.940;2023-11-21T03:57:44;4.40;;;2.10;;
65755;SDS011;69208;47.502;18.940;2023-11-21T03:58:47;5.05;;;2.35;;
65755;SDS011;69208;47.502;18.940;2023-11-21T03:59:51;4.37;;;2.20;;
65755;SDS011;69208;47.502;18.940;2023-11-21T04:00:54;7.47;;;2.60;;
65755;SDS011;69208;47.502;18.940;2023-11-21T04:01:57;5.85;;;2.65;;
65755;SDS011;69208;47.502;18.940;2023-11-21T04:03:01;4.72;;;2.60;;
65755;SDS011;69208;47.502;18.940;2023-11-21T04:04:04;5.07;;;2.60;;
65755;SDS011;69208;47.502;18.940;2023-11-21T04:05:07;5.28;;;2.60;;
65755;SDS011;69208;47.502;18.940;2023-11-21T04:06:11;6.05;;;2.50;;
65755;SDS011;69208;47.502;18.940;2023-11-21T04:07:14;5.03;;;2.20;;
65755;SDS011;69208;47.502;18.940;2023-11-21T04:08:18;4.78;;;2.28;;
65755;SDS011;69208;47.502;18.940;2023-11-21T04:09:21;4.80;;;2.40;;
65755;SDS011;69208;47.502;18.940;2023-11-21T04:10:27;5.30;;;2.30;;
65755;SDS011;69208;47.502;18.940;2023-11-21T04:11:31;10.15;;;2.50;;
65755;SDS011;69208;47.502;18.940;2023-11-21T04:12:35;8.25;;;2.35;;
65755;SDS011;69208;47.502;18.940;2023-11-21T04:13:39;5.82;;;2.22;;
65755;SDS011;69208;47.502;18.940;2023-11-21T04:14:43;7.43;;;2.47;;
65755;SDS011;69208;47.502;18.940;2023-11-21T04:15:46;4.28;;;2.30;;
65755;SDS011;69208;47.502;18.940;2023-11-21T04:16:49;8.63;;;2.50;;
65755;SDS011;69208;47.502;18.940;2023-11-21T04:17:52;3.65;;;2.10;;
65755;SDS011;69208;47.502;18.940;2023-11-21T04:18:55;5.57;;;2.50;;
65755;SDS011;69208;47.502;18.940;2023-11-21T04:19:59;4.78;;;2.22;;
65755;SDS011;69208;47.502;18.940;2023-11-21T04:21:03;4.18;;;2.30;;
65755;SDS011;69208;47.502;18.940;2023-11-21T04:22:07;6.35;;;2.30;;
65755;SDS011;69208;47.502;18.940;2023-11-21T04:23:11;6.10;;;2.40;;
65755;SDS011;69208;47.502;18.940;2023-11-21T04:24:16;7.12;;;2.50;;
65755;SDS011;69208;47.502;18.940;2023-11-21T04:25:19;7.57;;;2.42;;
65755;SDS011;69208;47.502;18.940;2023-11-21T04:26:22;5.05;;;2.35;;
65755;SDS011;69208;47.502;18.940;2023-11-21T04:27:25;6.25;;;2.78;;
65755;SDS011;69208;47.502;18.940;2023-11-21T04:28:28;6.68;;;2.55;;
65755;SDS011;69208;47.502;18.940;2023-11-21T04:29:31;4.43;;;2.42;;
65755;SDS011;69208;47.502;18.940;2023-11-21T04:30:35;4.97;;;2.40;;
65755;SDS011;69208;47.502;18.940;2023-11-21T04:31:38;4.40;;;2.17;;
65755;SDS011;69208;47.502;18.940;2023-11-21T04:32:41;6.07;;;2.15;;
65755;SDS011;69208;47.502;18.940;2023-11-21T04:33:47;4.45;;;2.28;;
65755;SDS011;69208;47.502;18.940;2023-11-21T04:34:50;5.15;;;2.55;;
65755;SDS011;69208;47.502;18.940;2023-11-21T04:35:53;4.20;;;1.95;;
65755;SDS011;69208;47.502;18.940;2023-11-21T04:36:57;6.03;;;2.30;;
65755;SDS011;69208;47.502;18.940;2023-11-21T04:38:00;3.97;;;1.90;;
65755;SDS011;69208;47.502;18.940;2023-11-21T04:39:03;5.32;;;1.87;;
65755;SDS011;69208;47.502;18.940;2023-11-21T04:40:06;4.75;;;2.40;;
65755;SDS011;69208;47.502;18.940;2023-11-21T04:41:10;4.85;;;2.40;;
65755;SDS011;69208;47.502;18.940;2023-11-21T04:42:14;5.55;;;2.17;;
65755;SDS011;69208;47.502;18.940;2023-11-21T04:43:17;4.45;;;2.00;;
65755;SDS011;69208;47.502;18.940;2023-11-21T04:44:21;3.95;;;1.90;;
65755;SDS011;69208;47.502;18.940;2023-11-21T04:45:24;3.78;;;2.00;;
65755;SDS011;69208;47.502;18.940;2023-11-21T04:46:27;5.18;;;1.90;;
65755;SDS011;69208;47.502;18.940;2023-11-21T04:47:30;3.30;;;2.10;;
65755;SDS011;69208;47.502;18.940;2023-11-21T04:48:34;4.90;;;2.05;;
65755;SDS011;69208;47.502;18.940;2023-11-21T04:49:36;4.43;;;2.03;;
65755;SDS011;69208;47.502;18.940;2023-11-21T04:50:39;5.35;;;2.50;;
65755;SDS011;69208;47.502;18.940;2023-11-21T04:51:43;5.70;;;2.40;;
65755;SDS011;69208;47.502;18.940;2023-11-21T04:52:46;6.00;;;2.20;;
65755;SDS011;69208;47.502;18.940;2023-11-21T04:53:49;3.25;;;1.85;;
65755;SDS011;69208;47.502;18.940;2023-11-21T04:54:52;4.68;;;2.10;;
65755;SDS011;69208;47.502;18.940;2023-11-21T04:55:56;3.92;;;2.00;;
65755;SDS011;69208;47.502;18.940;2023-11-21T04:56:59;2.95;;;1.90;;
65755;SDS011;69208;47.502;18.940;2023-11-21T04:58:03;5.20;;;2.15;;
65755;SDS011;69208;47.502;18.940;2023-11-21T04:59:07;6.00;;;2.08;;
65755;SDS011;69208;47.502;18.940;2023-11-21T05:00:11;5.28;;;2.12;;
65755;SDS011;69208;47.502;18.940;2023-11-21T05:01:15;5.60;;;2.40;;
65755;SDS011;69208;47.502;18.940;2023-11-21T05:02:19;4.72;;;2.10;;
65755;SDS011;69208;47.502;18.940;2023-11-21T05:03:36;4.93;;;2.10;;
65755;SDS011;69208;47.502;18.940;2023-11-21T05:04:41;5.53;;;2.10;;
65755;SDS011;69208;47.502;18.940;2023-11-21T05:05:45;4.10;;;2.10;;
65755;SDS011;69208;47.502;18.940;2023-11-21T05:06:48;3.78;;;1.83;;
65755;SDS011;69208;47.502;18.940;2023-11-21T05:07:52;3.42;;;1.80;;
65755;SDS011;69208;47.502;18.940;2023-11-21T05:08:56;4.70;;;2.15;;
65755;SDS011;69208;47.502;18.940;2023-11-21T05:09:59;5.35;;;2.22;;
65755;SDS011;69208;47.502;18.940;2023-11-21T05:11:02;2.83;;;1.80;;
65755;SDS011;69208;47.502;18.940;2023-11-21T05:12:06;3.78;;;2.10;;
65755;SDS011;69208;47.502;18.940;2023-11-21T05:13:09;5.80;;;2.42;;
65755;SDS011;69208;47.502;18.940;2023-11-21T05:14:13;4.30;;;2.00;;
65755;SDS011;69208;47.502;18.940;2023-11-21T05:15:16;2.87;;;1.90;;
65755;SDS011;69208;47.502;18.940;2023-11-21T05:16:20;5.72;;;1.92;;
65755;SDS011;69208;47.502;18.940;2023-11-21T05:17:24;4.97;;;2.00;;
65755;SDS011;69208;47.502;18.940;2023-11-21T05:18:27;5.32;;;2.05;;
65755;SDS011;69208;47.502;18.940;2023-11-21T05:19:32;6.40;;;1.70;;
65755;SDS011;69208;47.502;18.940;2023-11-21T05:20:37;5.37;;;2.20;;
65755;SDS011;69208;47.502;18.940;2023-11-21T05:21:41;6.10;;;2.10;;
65755;SDS011;69208;47.502;18.940;2023-11-21T05:22:44;4.43;;;2.15;;
65755;SDS011;69208;47.502;18.940;2023-11-21T05:23:47;5.75;;;1.80;;
65755;SDS011;69208;47.502;18.940;2023-11-21T05:24:50;4.45;;;2.08;;
65755;SDS011;69208;47.502;18.940;2023-11-21T05:25:54;3.30;;;1.60;;
65755;SDS011;69208;47.502;18.940;2023-11-21T05:26:58;3.87;;;1.70;;
65755;SDS011;69208;47.502;18.940;2023-11-21T05:28:01;4.80;;;1.95;;
65755;SDS011;69208;47.502;18.940;2023-11-21T05:29:05;4.72;;;2.03;;
65755;SDS011;69208;47.502;18.940;2023-11-21T05:30:09;2.60;;;1.58;;
65755;SDS011;69208;47.502;18.940;2023-11-21T05:31:14;3.42;;;1.80;;
65755;SDS011;69208;47.502;18.940;2023-11-21T05:32:18;6.55;;;1.80;;
65755;SDS011;69208;47.502;18.940;2023-11-21T05:33:21;3.70;;;1.90;;
65755;SDS011;69208;47.502;18.940;2023-11-21T05:34:24;5.62;;;1.90;;
65755;SDS011;69208;47.502;18.940;2023-11-21T05:35:29;4.15;;;1.80;;
65755;SDS011;69208;47.502;18.940;2023-11-21T05:36:32;4.55;;;1.92;;
65755;SDS011;69208;47.502;18.940;2023-11-21T05:37:36;4.12;;;1.85;;
65755;SDS011;69208;47.502;18.940;2023-11-21T05:38:41;2.47;;;1.60;;
65755;SDS011;69208;47.502;18.940;2023-11-21T05:39:44;4.12;;;1.70;;
65755;SDS011;69208;47.502;18.940;2023-11-21T05:40:47;4.25;;;1.77;;
65755;SDS011;69208;47.502;18.940;2023-11-21T05:41:51;4.53;;;2.10;;
65755;SDS011;69208;47.502;18.940;2023-11-21T05:42:54;4.65;;;2.00;;
65755;SDS011;69208;47.502;18.940;2023-11-21T05:43:58;3.75;;;1.70;;
65755;SDS011;69208;47.502;18.940;2023-11-21T05:45:01;4.37;;;2.03;;
65755;SDS011;69208;47.502;18.940;2023-11-21T05:46:15;5.80;;;1.92;;
65755;SDS011;69208;47.502;18.940;2023-11-21T05:47:19;4.45;;;2.05;;
65755;SDS011;69208;47.502;18.940;2023-11-21T05:48:25;3.83;;;1.95;;
65755;SDS011;69208;47.502;18.940;2023-11-21T05:49:29;5.18;;;2.55;;
65755;SDS011;69208;47.502;18.940;2023-11-21T05:50:33;4.03;;;2.10;;
65755;SDS011;69208;47.502;18.940;2023-11-21T05:51:37;4.72;;;1.87;;
65755;SDS011;69208;47.502;18.940;2023-11-21T05:52:41;4.82;;;2.00;;
65755;SDS011;69208;47.502;18.940;2023-11-21T05:53:46;5.05;;;2.25;;
65755;SDS011;69208;47.502;18.940;2023-11-21T05:54:49;4.72;;;1.90;;
65755;SDS011;69208;47.502;18.940;2023-11-21T05:55:52;3.60;;;1.85;;
65755;SDS011;69208;47.502;18.940;2023-11-21T05:56:55;4.37;;;2.08;;
65755;SDS011;69208;47.502;18.940;2023-11-21T05:57:59;5.03;;;2.20;;
65755;SDS011;69208;47.502;18.940;2023-11-21T05:59:02;4.72;;;2.17;;
65755;SDS011;69208;47.502;18.940;2023-11-21T06:00:12;4.62;;;2.10;;
65755;SDS011;69208;47.502;18.940;2023-11-21T06:01:17;2.83;;;1.70;;
65755;SDS011;69208;47.502;18.940;2023-11-21T06:02:20;3.70;;;1.90;;
65755;SDS011;69208;47.502;18.940;2023-11-21T06:03:23;4.05;;;1.90;;
65755;SDS011;69208;47.502;18.940;2023-11-21T06:04:27;3.97;;;2.03;;
65755;SDS011;69208;47.502;18.940;2023-11-21T06:05:30;6.45;;;2.10;;
65755;SDS011;69208;47.502;18.940;2023-11-21T06:06:35;4.95;;;2.03;;
65755;SDS011;69208;47.502;18.940;2023-11-21T06:07:38;5.28;;;1.80;;
65755;SDS011;69208;47.502;18.940;2023-11-21T06:08:42;4.07;;;1.92;;
65755;SDS011;69208;47.502;18.940;2023-11-21T06:09:46;5.78;;;2.00;;
65755;SDS011;69208;47.502;18.940;2023-11-21T06:10:51;5.93;;;1.90;;
65755;SDS011;69208;47.502;18.940;2023-11-21T06:11:54;6.10;;;2.20;;
65755;SDS011;69208;47.502;18.940;2023-11-21T06:12:57;3.90;;;1.90;;
65755;SDS011;69208;47.502;18.940;2023-11-21T06:14:05;5.32;;;2.12;;
65755;SDS011;69208;47.502;18.940;2023-11-21T06:15:10;2.65;;;1.70;;
65755;SDS011;69208;47.502;18.940;2023-11-21T06:16:17;4.70;;;2.25;;
65755;SDS011;69208;47.502;18.940;2023-11-21T06:17:22;3.15;;;1.80;;
65755;SDS011;69208;47.502;18.940;2023-11-21T06:18:28;6.12;;;2.20;;